^^
Saratoga-Weather Station Historical Data
Daily Summary for May 22, 2021 Units:  Metric    English   Both
Daily Weekly Monthly Yearly Custom
  High: Low: Average:
Temperature: 21.7 °C 16.6 °C 18.3 °C
Dew Point: 17.6 °C 13.4 °C 15.6 °C
Humidity: 95% 61% 85%
Wind Speed: 20.9km/h 0km/h 5.5km/h
Wind Gust: 25.7km/h - -
Wind- - West
Pressure: 1019.6 hPa 1015.2 hPa -
Precipitation: 0.5 mm    
Historical Graphs
 
 
Tabular Data for May 22, 2021
Time Temperature Dew Point Pressure Wind Wind Speed Wind Gust Humidity Rainfall Rate (Hourly) solar
00:03 18.9 °C 17.6 °C 1015.2 hPa Calm   4.8 km/h 92% 0.0 mm 0 W/m2
00:08 18.8 °C 17.5 °C 1015.2 hPa Calm   6.4 km/h 92% 0.0 mm 0 W/m2
00:13 18.8 °C 17.3 °C 1015.2 hPa Calm   1.6 km/h 91% 0.0 mm 0 W/m2
00:18 18.7 °C 17.2 °C 1015.2 hPa East 3.2 km/h 8 km/h 91% 0.0 mm 0 W/m2
00:23 18.7 °C 17.2 °C 1015.2 hPa East 4.7 km/h 4.8 km/h 91% 0.0 mm 0 W/m2
00:28 18.6 °C 17.1 °C 1015.2 hPa East 4.7 km/h 4.8 km/h 91% 0.0 mm 0 W/m2
00:33 18.5 °C 17 °C 1015.2 hPa WSW 1.4 km/h 3.2 km/h 91% 0.0 mm 0 W/m2
00:38 18.4 °C 16.9 °C 1015.2 hPa South 1.4 km/h 4.8 km/h 91% 0.0 mm 0 W/m2
00:43 18.3 °C 16.8 °C 1015.2 hPa WNW 4.7 km/h 6.4 km/h 91% 0.0 mm 0 W/m2
00:48 18.3 °C 16.8 °C 1015.2 hPa Calm   9.7 km/h 91% 0.0 mm 0 W/m2
00:53 18.2 °C 16.7 °C 1015.2 hPa Calm   3.2 km/h 91% 0.0 mm 0 W/m2
00:58 18.1 °C 16.6 °C 1015.2 hPa Calm   9.7 km/h 91% 0.0 mm 0 W/m2
01:03 18.1 °C 16.6 °C 1015.2 hPa NNW 3.2 km/h 3.2 km/h 91% 0.0 mm 0 W/m2
01:08 18.1 °C 16.6 °C 1015.2 hPa Calm   3.2 km/h 91% 0.0 mm 0 W/m2
01:13 18.1 °C 16.6 °C 1015.2 hPa NW 1.4 km/h 4.8 km/h 91% 0.0 mm 0 W/m2
01:18 18.1 °C 16.6 °C 1015.2 hPa Calm   11.3 km/h 91% 0.0 mm 0 W/m2
01:23 18.1 °C 16.6 °C 1015.2 hPa WSW 1.4 km/h 11.3 km/h 91% 0.0 mm 0 W/m2
01:28 18 °C 16.5 °C 1015.2 hPa Calm   3.2 km/h 91% 0.0 mm 0 W/m2
01:33 17.9 °C 16.6 °C 1015.2 hPa West 1.4 km/h 11.3 km/h 92% 0.0 mm 0 W/m2
01:38 17.9 °C 16.4 °C 1015.2 hPa Calm   3.2 km/h 91% 0.0 mm 0 W/m2
01:43 17.8 °C 16.5 °C 1015.2 hPa West 1.4 km/h 4.8 km/h 92% 0.0 mm 0 W/m2
01:48 17.8 °C 16.5 °C 1015.2 hPa SW 1.4 km/h 4.8 km/h 92% 0.0 mm 0 W/m2
01:53 17.7 °C 16.4 °C 1015.2 hPa NW 1.4 km/h 4.8 km/h 92% 0.0 mm 0 W/m2
01:58 17.7 °C 16.6 °C 1015.2 hPa West 4.7 km/h 9.7 km/h 93% 0.0 mm 0 W/m2
02:03 17.7 °C 16.6 °C 1015.2 hPa WNW 4.7 km/h 6.4 km/h 93% 0.0 mm 0 W/m2
02:08 17.7 °C 16.6 °C 1015.2 hPa West 6.4 km/h 8 km/h 93% 0.0 mm 0 W/m2
02:13 17.7 °C 16.6 °C 1015.2 hPa WNW 1.4 km/h 6.4 km/h 93% 0.0 mm 0 W/m2
02:18 17.7 °C 16.6 °C 1015.6 hPa WSW 4.7 km/h 12.9 km/h 93% 0.0 mm 0 W/m2
02:23 17.7 °C 16.6 °C 1015.2 hPa WNW 3.2 km/h 4.8 km/h 93% 0.0 mm 0 W/m2
02:28 17.6 °C 16.5 °C 1015.2 hPa Calm   11.3 km/h 93% 0.0 mm 0 W/m2
02:33 17.6 °C 16.5 °C 1015.2 hPa WSW 3.2 km/h 9.7 km/h 93% 0.0 mm 0 W/m2
02:38 17.7 °C 16.6 °C 1015.2 hPa West 1.4 km/h 6.4 km/h 93% 0.0 mm 0 W/m2
02:43 17.7 °C 16.6 °C 1015.6 hPa SW 3.2 km/h 8 km/h 93% 0.0 mm 0 W/m2
02:48 17.7 °C 16.6 °C 1015.2 hPa West 1.4 km/h 6.4 km/h 93% 0.0 mm 0 W/m2
02:53 17.7 °C 16.6 °C 1015.2 hPa SW 3.2 km/h 9.7 km/h 93% 0.0 mm 0 W/m2
02:58 17.7 °C 16.7 °C 1015.2 hPa WSW 3.2 km/h 12.9 km/h 94% 0.0 mm 0 W/m2
03:03 17.7 °C 16.7 °C 1015.6 hPa WSW 3.2 km/h 11.3 km/h 94% 0.0 mm 0 W/m2
03:08 17.7 °C 16.7 °C 1015.2 hPa West 3.2 km/h 12.9 km/h 94% 0.0 mm 0 W/m2
03:13 17.7 °C 16.7 °C 1015.2 hPa WNW 7.9 km/h 11.3 km/h 94% 0.0 mm 0 W/m2
03:18 17.7 °C 16.7 °C 1015.2 hPa WSW 6.4 km/h 14.5 km/h 94% 0.0 mm 0 W/m2
03:23 17.7 °C 16.7 °C 1015.2 hPa West 4.7 km/h 11.3 km/h 94% 0.0 mm 0 W/m2
03:28 17.7 °C 16.7 °C 1015.6 hPa West 4.7 km/h 11.3 km/h 94% 0.0 mm 0 W/m2
03:34 17.7 °C 16.7 °C 1015.6 hPa WSW 4.7 km/h 6.4 km/h 94% 0.0 mm 0 W/m2
03:39 17.7 °C 16.7 °C 1015.6 hPa WNW 4.7 km/h 6.4 km/h 94% 0.0 mm 0 W/m2
03:44 17.7 °C 16.7 °C 1015.6 hPa WNW 3.2 km/h 3.2 km/h 94% 0.0 mm 0 W/m2
03:49 17.7 °C 16.7 °C 1015.6 hPa West 1.4 km/h 3.2 km/h 94% 0.0 mm 0 W/m2
03:54 17.7 °C 16.7 °C 1015.6 hPa Calm     94% 0.0 mm 0 W/m2
03:59 17.6 °C 16.6 °C 1015.6 hPa Calm   1.6 km/h 94% 0.0 mm 0 W/m2
04:04 17.5 °C 16.5 °C 1015.6 hPa Calm     94% 0.0 mm 0 W/m2
04:09 17.4 °C 16.4 °C 1015.6 hPa West 1.4 km/h 4.8 km/h 94% 0.0 mm 0 W/m2
04:14 17.4 °C 16.4 °C 1015.6 hPa WSW 3.2 km/h 6.4 km/h 94% 0.0 mm 0 W/m2
04:19 17.4 °C 16.6 °C 1015.6 hPa West 4.7 km/h 8 km/h 95% 0.0 mm 0 W/m2
04:24 17.5 °C 16.7 °C 1015.6 hPa SW 4.7 km/h 9.7 km/h 95% 0.0 mm 0 W/m2
04:29 17.6 °C 16.8 °C 1015.6 hPa WNW 6.4 km/h 8 km/h 95% 0.0 mm 0 W/m2
04:34 17.6 °C 16.6 °C 1015.6 hPa WNW 4.7 km/h 6.4 km/h 94% 0.0 mm 0 W/m2
04:39 17.6 °C 16.6 °C 1015.6 hPa WSW 1.4 km/h 6.4 km/h 94% 0.0 mm 0 W/m2
04:44 17.6 °C 16.6 °C 1015.2 hPa West 3.2 km/h 6.4 km/h 94% 0.0 mm 0 W/m2
04:49 17.5 °C 16.5 °C 1015.2 hPa WSW 4.7 km/h 6.4 km/h 94% 0.0 mm 0 W/m2
04:54 17.5 °C 16.5 °C 1015.6 hPa WSW 1.4 km/h 6.4 km/h 94% 0.0 mm 0 W/m2
04:59 17.5 °C 16.5 °C 1015.6 hPa West 3.2 km/h 6.4 km/h 94% 0.0 mm 0 W/m2
05:04 17.6 °C 16.6 °C 1015.6 hPa West 9.7 km/h 9.7 km/h 94% 0.0 mm 0 W/m2
05:09 17.5 °C 16.5 °C 1015.6 hPa Calm   8 km/h 94% 0.0 mm 0 W/m2
05:14 17.5 °C 16.5 °C 1015.6 hPa West 3.2 km/h 9.7 km/h 94% 0.0 mm 0 W/m2
05:19 17.4 °C 16.4 °C 1015.6 hPa WSW 3.2 km/h 3.2 km/h 94% 0.0 mm 0 W/m2
05:24 17.4 °C 16.4 °C 1015.6 hPa West 3.2 km/h 4.8 km/h 94% 0.0 mm 0 W/m2
05:29 17.4 °C 16.4 °C 1015.6 hPa WSW 4.7 km/h 6.4 km/h 94% 0.0 mm 0 W/m2
05:34 17.3 °C 16.3 °C 1015.6 hPa West 6.4 km/h 9.7 km/h 94% 0.0 mm 0 W/m2
05:39 17.4 °C 16.4 °C 1015.6 hPa WSW 3.2 km/h 6.4 km/h 94% 0.0 mm 0 W/m2
05:44 17.4 °C 16.4 °C 1015.6 hPa WNW 9.7 km/h 9.7 km/h 94% 0.0 mm 0 W/m2
05:49 17.4 °C 16.4 °C 1015.6 hPa West 1.4 km/h 6.4 km/h 94% 0.0 mm 0 W/m2
05:54 17.4 °C 16.4 °C 1015.6 hPa WNW 3.2 km/h 6.4 km/h 94% 0.0 mm 0 W/m2
05:59 17.4 °C 16.4 °C 1015.6 hPa WNW 1.4 km/h 4.8 km/h 94% 0.0 mm 0 W/m2
06:04 17.4 °C 16.4 °C 1015.6 hPa WSW 3.2 km/h 4.8 km/h 94% 0.0 mm 0 W/m2
06:09 17.4 °C 16.4 °C 1015.6 hPa WNW 6.4 km/h 9.7 km/h 94% 0.0 mm 0 W/m2
06:14 17.4 °C 16.4 °C 1015.6 hPa West 1.4 km/h 3.2 km/h 94% 0.0 mm 0 W/m2
06:19 17.4 °C 16.4 °C 1015.9 hPa West 9.7 km/h 11.3 km/h 94% 0.0 mm 0 W/m2
06:24 17.4 °C 16.4 °C 1015.6 hPa WNW 1.4 km/h 4.8 km/h 94% 0.0 mm 0 W/m2
06:29 17.4 °C 16.4 °C 1015.9 hPa WNW 3.2 km/h 4.8 km/h 94% 0.0 mm 0 W/m2
06:34 17.4 °C 16.4 °C 1015.9 hPa West 1.4 km/h 3.2 km/h 94% 0.0 mm 0 W/m2
06:39 17.4 °C 16.4 °C 1015.9 hPa WNW 6.4 km/h 6.4 km/h 94% 0.0 mm 0 W/m2
06:44 17.4 °C 16.4 °C 1015.9 hPa WNW 6.4 km/h 6.4 km/h 94% 0.0 mm 5 W/m2
06:49 17.4 °C 16.4 °C 1015.9 hPa West 1.4 km/h 8 km/h 94% 0.0 mm 7 W/m2
06:54 17.4 °C 16.4 °C 1015.9 hPa West 4.7 km/h 6.4 km/h 94% 0.0 mm 7 W/m2
06:59 17.4 °C 16.4 °C 1015.9 hPa WNW 1.4 km/h 3.2 km/h 94% 0.0 mm 11 W/m2
07:04 17.3 °C 16.3 °C 1015.9 hPa West 4.7 km/h 4.8 km/h 94% 0.0 mm 11 W/m2
07:09 17.3 °C 16.2 °C 1015.9 hPa WNW 1.4 km/h 8 km/h 93% 0.0 mm 9 W/m2
07:14 17.3 °C 16.3 °C 1015.9 hPa NW 1.4 km/h 6.4 km/h 94% 0.0 mm 11 W/m2
07:19 17.3 °C 16.3 °C 1015.9 hPa Calm     94% 0.0 mm 12 W/m2
07:24 17.4 °C 16.4 °C 1015.9 hPa Calm     94% 0.0 mm 11 W/m2
07:29 17.4 °C 16.4 °C 1015.9 hPa Calm     94% 0.0 mm 16 W/m2
07:34 17.4 °C 16.4 °C 1015.9 hPa Calm   1.6 km/h 94% 0.0 mm 30 W/m2
07:39 17.4 °C 16.4 °C 1016.3 hPa Calm   4.8 km/h 94% 0.0 mm 19 W/m2
07:44 17.4 °C 16.4 °C 1015.9 hPa Calm   4.8 km/h 94% 0.0 mm 18 W/m2
07:49 17.4 °C 16.4 °C 1016.3 hPa Calm   1.6 km/h 94% 0.0 mm 14 W/m2
07:54 17.4 °C 16.4 °C 1016.3 hPa Calm   3.2 km/h 94% 0.0 mm 35 W/m2
07:59 17.5 °C 16.5 °C 1016.3 hPa Calm   1.6 km/h 94% 0.0 mm 28 W/m2
08:04 17.6 °C 16.6 °C 1016.3 hPa Calm   3.2 km/h 94% 0.0 mm 33 W/m2
08:09 17.6 °C 16.5 °C 1016.3 hPa WSW 1.4 km/h 4.8 km/h 93% 0.0 mm 25 W/m2
08:14 17.6 °C 16.5 °C 1016.3 hPa Calm   6.4 km/h 93% 0.0 mm 35 W/m2
08:19 17.7 °C 16.6 °C 1016.3 hPa Calm     93% 0.0 mm 37 W/m2
08:24 17.7 °C 16.6 °C 1016.3 hPa Calm   3.2 km/h 93% 0.0 mm 32 W/m2
08:29 17.7 °C 16.6 °C 1016.3 hPa WNW 1.4 km/h 4.8 km/h 93% 0.0 mm 33 W/m2
08:34 17.7 °C 16.6 °C 1016.6 hPa WNW 6.4 km/h 6.4 km/h 93% 0.0 mm 21 W/m2
08:39 17.7 °C 16.6 °C 1016.3 hPa NW 3.2 km/h 6.4 km/h 93% 0.0 mm 49 W/m2
08:44 17.7 °C 16.6 °C 1016.3 hPa WNW 4.7 km/h 4.8 km/h 93% 0.0 mm 33 W/m2
08:49 17.7 °C 16.6 °C 1016.6 hPa WNW 7.9 km/h 9.7 km/h 93% 0.0 mm 19 W/m2
08:54 17.6 °C 16.5 °C 1016.6 hPa NW 1.4 km/h 12.9 km/h 93% 0.0 mm 40 W/m2
08:59 17.6 °C 16.5 °C 1016.6 hPa SW 7.9 km/h 8 km/h 93% 0.0 mm 63 W/m2
09:04 17.6 °C 16.5 °C 1016.3 hPa West 9.7 km/h 12.9 km/h 93% 0.0 mm 65 W/m2
09:09 17.7 °C 16.4 °C 1016.3 hPa Calm   4.8 km/h 92% 0.0 mm 83 W/m2
09:14 17.7 °C 16.6 °C 1016.3 hPa SW 7.9 km/h 11.3 km/h 93% 0.0 mm 69 W/m2
09:19 17.7 °C 16.4 °C 1016.3 hPa NW 3.2 km/h 6.4 km/h 92% 0.0 mm 53 W/m2
09:24 17.7 °C 16.4 °C 1016.6 hPa West 1.4 km/h 11.3 km/h 92% 0.0 mm 42 W/m2
09:29 17.7 °C 16.4 °C 1016.6 hPa North 6.4 km/h 14.5 km/h 92% 0.0 mm 30 W/m2
09:34 17.6 °C 16.3 °C 1016.6 hPa West 9.7 km/h 9.7 km/h 92% 0.2 mm 35 W/m2
09:39 17.5 °C 16.4 °C 1016.6 hPa WNW 3.2 km/h 3.2 km/h 93% 0.2 mm 63 W/m2
09:44 17.5 °C 16.4 °C 1016.3 hPa West 11.1 km/h 11.3 km/h 93% 0.2 mm 123 W/m2
09:49 17.5 °C 16.4 °C 1016.3 hPa NW 3.2 km/h 9.7 km/h 93% 0.2 mm 130 W/m2
09:54 17.5 °C 16.4 °C 1016.6 hPa WNW 6.4 km/h 11.3 km/h 93% 0.2 mm 114 W/m2
09:59 17.6 °C 16.5 °C 1016.6 hPa West 3.2 km/h 9.7 km/h 93% 0.2 mm 77 W/m2
10:04 17.6 °C 16.5 °C 1016.6 hPa WNW 4.7 km/h 11.3 km/h 93% 0.2 mm 49 W/m2
10:10 17.5 °C 16.4 °C 1016.6 hPa West 9.7 km/h 9.7 km/h 93% 0.2 mm 83 W/m2
10:15 17.6 °C 16.5 °C 1016.6 hPa WNW 3.2 km/h 11.3 km/h 93% 0.2 mm 67 W/m2
10:20 17.5 °C 16.2 °C 1016.6 hPa WNW 1.4 km/h 8 km/h 92% 0.2 mm 53 W/m2
10:25 17.6 °C 16.3 °C 1016.6 hPa North 4.7 km/h 4.8 km/h 92% 0.2 mm 79 W/m2
10:30 17.6 °C 16.3 °C 1016.6 hPa West 3.2 km/h 6.4 km/h 92% 0.2 mm 91 W/m2
10:35 17.6 °C 16.3 °C 1016.6 hPa WNW 7.9 km/h 8 km/h 92% 0.0 mm 109 W/m2
10:40 17.7 °C 16.4 °C 1016.9 hPa West 4.7 km/h 4.8 km/h 92% 0.0 mm 74 W/m2
10:45 17.7 °C 16.4 °C 1016.6 hPa West 8 km/h 8 km/h 92% 0.0 mm 53 W/m2
10:50 17.7 °C 16.4 °C 1016.9 hPa West 1.4 km/h 3.2 km/h 92% 0.0 mm 54 W/m2
10:55 17.7 °C 16.4 °C 1016.9 hPa NW 1.4 km/h 6.4 km/h 92% 0.0 mm 42 W/m2
11:00 17.7 °C 16.4 °C 1016.9 hPa Calm   3.2 km/h 92% 0.0 mm 93 W/m2
11:05 17.8 °C 16.5 °C 1016.9 hPa WNW 1.4 km/h 3.2 km/h 92% 0.0 mm 127 W/m2
11:10 17.8 °C 16.5 °C 1016.9 hPa NW 4.7 km/h 4.8 km/h 92% 0.0 mm 77 W/m2
11:15 17.8 °C 16.5 °C 1016.9 hPa WNW 1.4 km/h 3.2 km/h 92% 0.0 mm 90 W/m2
11:20 17.9 °C 16.4 °C 1016.9 hPa West 3.2 km/h 6.4 km/h 91% 0.0 mm 63 W/m2
11:25 17.9 °C 16.4 °C 1016.9 hPa WNW 3.2 km/h 4.8 km/h 91% 0.0 mm 44 W/m2
11:30 17.9 °C 16.4 °C 1016.9 hPa WSW 3.2 km/h 6.4 km/h 91% 0.0 mm 69 W/m2
11:35 17.9 °C 16.2 °C 1016.9 hPa West 3.2 km/h 6.4 km/h 90% 0.0 mm 95 W/m2
11:40 17.9 °C 16.2 °C 1016.9 hPa West 4.7 km/h 6.4 km/h 90% 0.0 mm 102 W/m2
11:45 18 °C 16.3 °C 1016.9 hPa NW 6.4 km/h 9.7 km/h 90% 0.0 mm 229 W/m2
11:50 18 °C 16.3 °C 1016.9 hPa WSW 7.9 km/h 12.9 km/h 90% 0.0 mm 197 W/m2
11:55 18 °C 16.3 °C 1016.9 hPa WSW 6.4 km/h 9.7 km/h 90% 0.2 mm 248 W/m2
12:00 17.9 °C 16.1 °C 1016.9 hPa WNW 13 km/h 17.7 km/h 89% 0.2 mm 278 W/m2
12:05 17.9 °C 16.2 °C 1016.9 hPa WNW 4.7 km/h 6.4 km/h 90% 0.2 mm 336 W/m2
12:10 18 °C 16.3 °C 1016.9 hPa West 9.7 km/h 14.5 km/h 90% 0.2 mm 425 W/m2
12:15 18.2 °C 16.4 °C 1016.6 hPa WNW 13 km/h 17.7 km/h 89% 0.2 mm 497 W/m2
12:20 18.2 °C 16 °C 1016.6 hPa West 11.1 km/h 16.1 km/h 87% 0.2 mm 417 W/m2
12:25 18.3 °C 16.3 °C 1016.6 hPa WNW 11.1 km/h 14.5 km/h 88% 0.2 mm 536 W/m2
12:30 18.6 °C 16.2 °C 1016.6 hPa WNW 7.9 km/h 14.5 km/h 86% 0.2 mm 462 W/m2
12:35 18.8 °C 16.4 °C 1016.6 hPa NW 4.7 km/h 14.5 km/h 86% 0.2 mm 427 W/m2
12:40 18.9 °C 16.3 °C 1016.6 hPa WNW 7.9 km/h 14.5 km/h 85% 0.2 mm 357 W/m2
12:45 18.9 °C 16.1 °C 1016.6 hPa NNW 4.7 km/h 12.9 km/h 84% 0.2 mm 411 W/m2
12:50 19.2 °C 16.6 °C 1016.6 hPa WSW 17.7 km/h 17.7 km/h 85% 0.2 mm 1048 W/m2
12:55 19.2 °C 16.1 °C 1016.6 hPa WSW 7.9 km/h 11.3 km/h 82% 0.0 mm 297 W/m2
13:00 19.4 °C 16.6 °C 1016.6 hPa West 3.2 km/h 14.5 km/h 84% 0.0 mm 478 W/m2
13:05 19.7 °C 16.7 °C 1016.3 hPa WNW 3.2 km/h 12.9 km/h 83% 0.0 mm 478 W/m2
13:10 19.8 °C 16.6 °C 1016.3 hPa WNW 7.9 km/h 16.1 km/h 82% 0.0 mm 253 W/m2
13:15 19.6 °C 16.2 °C 1016.3 hPa Calm   11.3 km/h 81% 0.0 mm 276 W/m2
13:20 19.6 °C 16.1 °C 1016.3 hPa WNW 7.9 km/h 16.1 km/h 80% 0.0 mm 216 W/m2
13:25 19.6 °C 15.9 °C 1016.3 hPa WNW 3.2 km/h 8 km/h 79% 0.0 mm 216 W/m2
13:30 19.6 °C 15.9 °C 1016.3 hPa WNW 4.7 km/h 16.1 km/h 79% 0.0 mm 269 W/m2
13:35 19.7 °C 16.2 °C 1016.3 hPa NW 4.7 km/h 9.7 km/h 80% 0.0 mm 223 W/m2
13:40 19.8 °C 16.2 °C 1016.3 hPa West 4.7 km/h 11.3 km/h 80% 0.0 mm 329 W/m2
13:45 19.8 °C 16.2 °C 1016.3 hPa WNW 4.7 km/h 8 km/h 80% 0.0 mm 279 W/m2
13:50 19.9 °C 16.1 °C 1016.3 hPa West 3.2 km/h 17.7 km/h 79% 0.0 mm 227 W/m2
13:55 19.9 °C 16.1 °C 1016.3 hPa WSW 6.4 km/h 11.3 km/h 79% 0.0 mm 272 W/m2
14:00 19.8 °C 16.1 °C 1016.3 hPa WSW 14.3 km/h 16.1 km/h 79% 0.0 mm 295 W/m2
14:05 19.8 °C 15.9 °C 1016.6 hPa West 19.5 km/h 19.3 km/h 78% 0.0 mm 311 W/m2
14:10 19.7 °C 15.8 °C 1016.6 hPa SW 9.7 km/h 14.5 km/h 78% 0.0 mm 262 W/m2
14:15 19.6 °C 15.3 °C 1016.3 hPa West 4.7 km/h 11.3 km/h 76% 0.0 mm 364 W/m2
14:20 19.7 °C 15.1 °C 1016.3 hPa West 3.2 km/h 14.5 km/h 75% 0.0 mm 376 W/m2
14:25 19.9 °C 14.9 °C 1016.3 hPa WNW 4.7 km/h 16.1 km/h 73% 0.0 mm 264 W/m2
14:30 19.8 °C 14.2 °C 1016.3 hPa WSW 13 km/h 14.5 km/h 70% 0.0 mm 239 W/m2
14:35 20.1 °C 14.7 °C 1016.3 hPa WSW 4.7 km/h 14.5 km/h 71% 0.0 mm 411 W/m2
14:40 20.2 °C 14.1 °C 1016.3 hPa WNW 6.4 km/h 19.3 km/h 68% 0.0 mm 404 W/m2
14:45 20.4 °C 14.3 °C 1016.3 hPa WNW 11.1 km/h 12.9 km/h 68% 0.0 mm 457 W/m2
14:50 20.7 °C 14.4 °C 1016.3 hPa West 11.1 km/h 17.7 km/h 67% 0.0 mm 1109 W/m2
14:55 21.1 °C 14.7 °C 1016.6 hPa West 13 km/h 17.7 km/h 67% 0.0 mm 469 W/m2
15:00 20.9 °C 14.3 °C 1016.6 hPa West 17.7 km/h 17.7 km/h 66% 0.0 mm 408 W/m2
15:05 21 °C 14.6 °C 1016.6 hPa WSW 6.4 km/h 11.3 km/h 67% 0.0 mm 346 W/m2
15:10 20.9 °C 14.1 °C 1016.6 hPa West 6.4 km/h 19.3 km/h 65% 0.0 mm 223 W/m2
15:15 20.6 °C 14 °C 1016.6 hPa West 13 km/h 19.3 km/h 66% 0.0 mm 287 W/m2
15:20 20.5 °C 14.2 °C 1016.6 hPa WNW 7.9 km/h 16.1 km/h 67% 0.0 mm 865 W/m2
15:25 20.8 °C 14 °C 1016.6 hPa West 13 km/h 17.7 km/h 65% 0.0 mm 856 W/m2
15:30 21 °C 13.9 °C 1016.6 hPa WSW 11.1 km/h 17.7 km/h 64% 0.0 mm 343 W/m2
15:35 21 °C 13.4 °C 1016.6 hPa NW 7.9 km/h 19.3 km/h 62% 0.0 mm 814 W/m2
15:40 20.9 °C 13.8 °C 1016.6 hPa WNW 4.7 km/h 11.3 km/h 64% 0.0 mm 396 W/m2
15:45 20.9 °C 13.8 °C 1016.6 hPa WNW 14.3 km/h 22.5 km/h 64% 0.0 mm 253 W/m2
15:50 20.9 °C 13.6 °C 1016.6 hPa NW 7.9 km/h 12.9 km/h 63% 0.0 mm 701 W/m2
15:55 21.1 °C 13.8 °C 1016.6 hPa West 4.7 km/h 24.1 km/h 63% 0.0 mm 733 W/m2
16:00 21.1 °C 13.5 °C 1016.6 hPa NW 11.1 km/h 16.1 km/h 62% 0.0 mm 724 W/m2
16:05 21.1 °C 14 °C 1016.6 hPa WSW 11.1 km/h 19.3 km/h 64% 0.0 mm 726 W/m2
16:11 21.4 °C 14.1 °C 1016.6 hPa WSW 7.9 km/h 17.7 km/h 63% 0.0 mm 684 W/m2
16:16 21.4 °C 14.1 °C 1016.6 hPa NNW 13 km/h 17.7 km/h 63% 0.0 mm 666 W/m2
16:21 21.2 °C 14.1 °C 1016.6 hPa WSW 4.7 km/h 16.1 km/h 64% 0.0 mm 673 W/m2
16:26 21 °C 14.2 °C 1016.3 hPa WNW 4.7 km/h 11.3 km/h 65% 0.0 mm 125 W/m2
16:31 21.1 °C 14.3 °C 1016.6 hPa West 14.3 km/h 19.3 km/h 65% 0.0 mm 715 W/m2
16:36 21.2 °C 13.9 °C 1016.6 hPa West 9.7 km/h 20.9 km/h 63% 0.0 mm 680 W/m2
16:41 21.1 °C 14 °C 1016.6 hPa WSW 4.7 km/h 12.9 km/h 64% 0.0 mm 714 W/m2
16:46 21.1 °C 14.3 °C 1016.6 hPa West 11.1 km/h 11.3 km/h 65% 0.0 mm 253 W/m2
16:51 21.2 °C 14.1 °C 1016.6 hPa NW 17.7 km/h 17.7 km/h 64% 0.0 mm 485 W/m2
16:56 21.3 °C 14.2 °C 1016.6 hPa WSW 11.1 km/h 16.1 km/h 64% 0.0 mm 406 W/m2
17:01 21.5 °C 14.2 °C 1016.6 hPa NW 4.7 km/h 16.1 km/h 63% 0.0 mm 738 W/m2
17:06 21.7 °C 14.1 °C 1016.6 hPa West 6.4 km/h 25.7 km/h 62% 0.0 mm 649 W/m2
17:11 21.7 °C 13.8 °C 1016.6 hPa NW 19.5 km/h 19.3 km/h 61% 0.0 mm 636 W/m2
17:16 21.7 °C 14.1 °C 1016.6 hPa WNW 7.9 km/h 12.9 km/h 62% 0.0 mm 276 W/m2
17:21 21.5 °C 13.9 °C 1016.6 hPa WNW 6.4 km/h 16.1 km/h 62% 0.0 mm 151 W/m2
17:26 21.3 °C 14 °C 1016.6 hPa NW 7.9 km/h 14.5 km/h 63% 0.0 mm 116 W/m2
17:31 20.9 °C 14.1 °C 1016.9 hPa WSW 6.4 km/h 16.1 km/h 65% 0.0 mm 120 W/m2
17:36 20.7 °C 13.9 °C 1016.9 hPa WSW 3.2 km/h 16.1 km/h 65% 0.0 mm 84 W/m2
17:41 20.6 °C 14 °C 1016.9 hPa West 4.7 km/h 11.3 km/h 66% 0.0 mm 114 W/m2
17:46 20.6 °C 14.3 °C 1016.9 hPa NW 7.9 km/h 19.3 km/h 67% 0.0 mm 149 W/m2
17:51 20.5 °C 14.2 °C 1016.9 hPa WNW 13 km/h 17.7 km/h 67% 0.0 mm 88 W/m2
17:56 20.3 °C 14.2 °C 1016.9 hPa WNW 9.7 km/h 19.3 km/h 68% 0.0 mm 127 W/m2
18:01 20.2 °C 14.1 °C 1017.3 hPa WNW 11.1 km/h 24.1 km/h 68% 0.0 mm 185 W/m2
18:06 20.1 °C 14.2 °C 1017.3 hPa WNW 11.1 km/h 11.3 km/h 69% 0.0 mm 128 W/m2
18:11 19.9 °C 14.3 °C 1017.3 hPa West 20.9 km/h 24.1 km/h 70% 0.0 mm 93 W/m2
18:16 19.7 °C 14.3 °C 1017.3 hPa WNW 20.9 km/h 20.9 km/h 71% 0.0 mm 105 W/m2
18:21 19.4 °C 14.2 °C 1017.3 hPa WSW 6.4 km/h 16.1 km/h 72% 0.0 mm 127 W/m2
18:26 19.2 °C 14.5 °C 1017.6 hPa West 20.9 km/h 20.9 km/h 74% 0.0 mm 207 W/m2
18:31 19.2 °C 14.9 °C 1017.6 hPa WSW 16.3 km/h 20.9 km/h 76% 0.0 mm 457 W/m2
18:36 19.2 °C 14.7 °C 1017.3 hPa WNW 6.4 km/h 24.1 km/h 75% 0.0 mm 415 W/m2
18:41 19.3 °C 14.8 °C 1017.6 hPa SSW 6.4 km/h 17.7 km/h 75% 0.0 mm 332 W/m2
18:46 19.3 °C 15 °C 1017.6 hPa West 9.7 km/h 20.9 km/h 76% 0.0 mm 272 W/m2
18:51 19.2 °C 15.1 °C 1017.6 hPa West 6.4 km/h 9.7 km/h 77% 0.0 mm 239 W/m2
18:56 19.1 °C 15 °C 1017.6 hPa WNW 13 km/h 19.3 km/h 77% 0.0 mm 230 W/m2
19:01 19.1 °C 15 °C 1017.6 hPa SW 4.7 km/h 9.7 km/h 77% 0.0 mm 214 W/m2
19:06 19 °C 14.7 °C 1017.6 hPa West 11.1 km/h 17.7 km/h 76% 0.0 mm 197 W/m2
19:11 18.9 °C 14.8 °C 1017.6 hPa WNW 13 km/h 16.1 km/h 77% 0.0 mm 130 W/m2
19:16 18.7 °C 14.8 °C 1017.6 hPa West 14.3 km/h 17.7 km/h 78% 0.0 mm 30 W/m2
19:21 18.4 °C 14.7 °C 1017.6 hPa North 6.4 km/h 12.9 km/h 79% 0.0 mm 35 W/m2
19:26 18.3 °C 14.8 °C 1017.6 hPa West 6.4 km/h 16.1 km/h 80% 0.0 mm 70 W/m2
19:31 18.2 °C 14.9 °C 1017.6 hPa WNW 7.9 km/h 14.5 km/h 81% 0.0 mm 97 W/m2
19:36 18.1 °C 15 °C 1018.0 hPa West 6.4 km/h 11.3 km/h 82% 0.0 mm 42 W/m2
19:41 18.1 °C 15 °C 1017.6 hPa WNW 7.9 km/h 12.9 km/h 82% 0.0 mm 37 W/m2
19:46 18 °C 14.9 °C 1017.6 hPa WSW 9.7 km/h 12.9 km/h 82% 0.0 mm 40 W/m2
19:51 17.9 °C 15 °C 1018.0 hPa NW 6.4 km/h 19.3 km/h 83% 0.0 mm 39 W/m2
19:56 17.9 °C 15 °C 1018.0 hPa WNW 13 km/h 12.9 km/h 83% 0.0 mm 39 W/m2
20:01 17.9 °C 15 °C 1018.0 hPa WNW 17.7 km/h 19.3 km/h 83% 0.0 mm 40 W/m2
20:06 18.1 °C 15 °C 1018.0 hPa WNW 9.7 km/h 19.3 km/h 82% 0.0 mm 42 W/m2
20:11 18.1 °C 15 °C 1018.0 hPa West 11.1 km/h 19.3 km/h 82% 0.0 mm 32 W/m2
20:16 18 °C 14.9 °C 1018.3 hPa WNW 9.7 km/h 22.5 km/h 82% 0.0 mm 23 W/m2
20:21 18 °C 14.9 °C 1018.3 hPa West 11.1 km/h 14.5 km/h 82% 0.0 mm 16 W/m2
20:26 17.8 °C 14.7 °C 1018.3 hPa NNW 6.4 km/h 17.7 km/h 82% 0.0 mm 9 W/m2
20:31 17.8 °C 14.7 °C 1018.3 hPa NNE 13 km/h 16.1 km/h 82% 0.0 mm 5 W/m2
20:36 17.7 °C 14.6 °C 1018.3 hPa West 6.4 km/h 16.1 km/h 82% 0.0 mm 0 W/m2
20:41 17.6 °C 14.3 °C 1018.3 hPa West 14.3 km/h 17.7 km/h 81% 0.0 mm 0 W/m2
20:46 17.5 °C 14.4 °C 1018.3 hPa WNW 4.7 km/h 17.7 km/h 82% 0.0 mm 0 W/m2
20:51 17.4 °C 14.3 °C 1018.3 hPa WSW 6.4 km/h 12.9 km/h 82% 0.0 mm 0 W/m2
20:56 17.4 °C 14.3 °C 1018.6 hPa West 4.7 km/h 14.5 km/h 82% 0.0 mm 0 W/m2
21:01 17.4 °C 14.5 °C 1018.6 hPa West 6.4 km/h 12.9 km/h 83% 0.0 mm 0 W/m2
21:06 17.4 °C 14.3 °C 1018.6 hPa WNW 7.9 km/h 14.5 km/h 82% 0.0 mm 0 W/m2
21:11 17.4 °C 14.5 °C 1018.6 hPa WSW 7.9 km/h 12.9 km/h 83% 0.0 mm 0 W/m2
21:16 17.4 °C 14.5 °C 1018.6 hPa NW 4.7 km/h 16.1 km/h 83% 0.0 mm 0 W/m2
21:21 17.4 °C 14.5 °C 1019.0 hPa WSW 6.4 km/h 12.9 km/h 83% 0.0 mm 0 W/m2
21:26 17.3 °C 14.4 °C 1019.0 hPa West 3.2 km/h 12.9 km/h 83% 0.0 mm 0 W/m2
21:31 17.3 °C 14.4 °C 1019.0 hPa SW 3.2 km/h 12.9 km/h 83% 0.0 mm 0 W/m2
21:36 17.3 °C 14.4 °C 1019.0 hPa West 4.7 km/h 19.3 km/h 83% 0.0 mm 0 W/m2
21:41 17.3 °C 14.4 °C 1019.0 hPa West 3.2 km/h 12.9 km/h 83% 0.0 mm 0 W/m2
21:46 17.3 °C 14.4 °C 1019.3 hPa NW 11.1 km/h 14.5 km/h 83% 0.0 mm 0 W/m2
21:51 17.3 °C 14.4 °C 1019.3 hPa WNW 1.4 km/h 9.7 km/h 83% 0.0 mm 0 W/m2
21:56 17.3 °C 14.4 °C 1019.3 hPa WSW 1.4 km/h 12.9 km/h 83% 0.0 mm 0 W/m2
22:01 17.3 °C 14.4 °C 1019.3 hPa West 3.2 km/h 4.8 km/h 83% 0.0 mm 0 W/m2
22:06 17.2 °C 14.5 °C 1019.3 hPa Calm   8 km/h 84% 0.0 mm 0 W/m2
22:11 17.2 °C 14.5 °C 1019.3 hPa WSW 1.4 km/h 4.8 km/h 84% 0.0 mm 0 W/m2
22:16 17.1 °C 14.4 °C 1019.6 hPa West 4.7 km/h 6.4 km/h 84% 0.0 mm 0 W/m2
22:21 17.1 °C 14.4 °C 1019.6 hPa West 4.7 km/h 8 km/h 84% 0.0 mm 0 W/m2
22:26 17 °C 14.3 °C 1019.6 hPa WSW 4.7 km/h 6.4 km/h 84% 0.0 mm 0 W/m2
22:31 16.9 °C 14.4 °C 1019.6 hPa West 6.4 km/h 6.4 km/h 85% 0.0 mm 0 W/m2
22:36 16.8 °C 14.3 °C 1019.6 hPa West 4.7 km/h 4.8 km/h 85% 0.0 mm 0 W/m2
22:41 16.8 °C 14.3 °C 1019.6 hPa Calm   3.2 km/h 85% 0.0 mm 0 W/m2
22:46 16.7 °C 14.3 °C 1019.6 hPa WSW 6.4 km/h 9.7 km/h 86% 0.0 mm 0 W/m2
22:51 16.7 °C 14.3 °C 1019.6 hPa WSW 1.4 km/h 4.8 km/h 86% 0.0 mm 0 W/m2
22:56 16.6 °C 14.2 °C 1019.6 hPa WSW 1.4 km/h 6.4 km/h 86% 0.0 mm 0 W/m2
23:01 16.6 °C 14.4 °C 1019.6 hPa West 3.2 km/h 11.3 km/h 87% 0.0 mm 0 W/m2
23:06 16.7 °C 14.5 °C 1019.6 hPa West 4.7 km/h 9.7 km/h 87% 0.0 mm 0 W/m2
23:11 16.7 °C 14.5 °C 1019.6 hPa West 4.7 km/h 11.3 km/h 87% 0.0 mm 0 W/m2
23:16 16.7 °C 14.5 °C 1019.6 hPa NW 1.4 km/h 6.4 km/h 87% 0.0 mm 0 W/m2
23:21 16.6 °C 14.4 °C 1019.6 hPa WSW 4.7 km/h 14.5 km/h 87% 0.0 mm 0 W/m2
23:26 16.6 °C 14.4 °C 1019.6 hPa WSW 4.7 km/h 9.7 km/h 87% 0.0 mm 0 W/m2
23:31 16.7 °C 14.5 °C 1019.6 hPa West 3.2 km/h 14.5 km/h 87% 0.0 mm 0 W/m2
23:36 16.6 °C 14.4 °C 1019.6 hPa WSW 3.2 km/h 6.4 km/h 87% 0.0 mm 0 W/m2
23:41 16.6 °C 14.4 °C 1019.6 hPa West 4.7 km/h 8 km/h 87% 0.0 mm 0 W/m2
23:46 16.7 °C 14.5 °C 1019.3 hPa Calm   6.4 km/h 87% 0.0 mm 0 W/m2
23:51 16.7 °C 14.5 °C 1019.6 hPa West 3.2 km/h 6.4 km/h 87% 0.0 mm 0 W/m2
23:56 16.6 °C 14.4 °C 1019.3 hPa West 3.2 km/h 6.4 km/h 87% 0.0 mm 0 W/m2
Juneau County Weather
Compliments of Weather Underground - 4 mb